首页
METAR-TAF:

METAR-TAF

机场 :

博博迪烏拉索機場

博博迪乌拉索, 布吉納法索

纬度: 11-10N, 经度: 004-19W, 海拔: 460米

当前天气观测

该预报发布于15小时和9分钟前的17:00 UTC
风速4节,风向
温度 38°C
湿度 35%
气压 1009 hPa
能见度10公里或以上
少量云层高于2000英尺

METAR: DFOO 041700Z 10004KT 9999 FEW020 38/20 Q1009

时间: 08:09 (08:09 UTC)

预报

该预报发布于3小时和9分钟前的05:00 UTC
预报有效从05日的 06点(UTC)到 06日的 06点(UTC)
风速8节,风向南转西南
能见度10公里或以上
少量云层高于2300英尺
几率 30% :
短暂存在
从 05日的 15点(UTC)到 05日的 24点(UTC)
能見度: 4000
少量云层高于2300英尺
少量云层高于3600英尺, 积雨云.
雷暴, 雨

TAF: DFOO 050500Z 0506/0606 20008KT 9999 FEW023 PROB30 TEMPO 0515/0524 4000 TSRA FEW023 FEW036CB

超过4000个机场的气象观测和天气预报(METAR&TAF报告)。

可查询的气象台以黄色和红色小点在地图上表示。

将鼠标移到小点上方,可查看气象台名称。

然后点击查看天气观测和预报。

如需切换地图:点击带黑十字的绿色按钮放大地图;点击带横线的绿色按钮缩小地图;或者点击绿色箭头查看邻近地区的地图。


METAR-TAF: